Aeroporto :







RITROVATECI SU...

 
LOGIN :

Iscrizione | Disclaimer

   EN    FR    IT 

 









Sommario :    VFR   VFR Marginale   IFR   IFR Intensivo   IFR Molto Intensivo
Visibilità : 
Base nubi : 
>= 8 km
>= 3000ft
5 / 8 km
1000 / 3000 ft
1500m / 5 km
500 / 1000 ft
800 / 1500m
200 / 500 ft
< 800m
< 200 ft
Simboli :   Temporali  Nebbia  Neve Forte  Precipitazioni Forti  Vento > 20 kt






- Altitudine del aeroporto : 930 ft


KEFK - Newport State

ULTIMO METAR :
  • 090136Z AUTO 18008G14KT 10SM SCT100 M03/M10 A3012 RMK AO2 T10301102

METARs OBSOLETI :
  • 090117Z AUTO 19008KT 10SM CLR M03/M10 A3013 RMK AO2 T10281103
  • 090056Z AUTO 19008G15KT 10SM CLR M03/M10 A3012 RMK AO2 T10311103
  • 090036Z AUTO 20009KT 10SM CLR M03/M11 A3014 RMK AO2 T10321106
  • 090016Z AUTO 20007G14KT 160V220 10SM CLR M03/M11 A3013 RMK AO2 T10311106
  • 082356Z AUTO 18009G14KT 10SM CLR M03/M11 A3012 RMK AO2 T10281109 11026 21045
  • 082336Z AUTO 18005KT 10SM CLR M03/M11 A3013 RMK AO2 T10271114
  • 082316Z AUTO 17008KT 10SM SCT090 M03/M12 A3015 RMK AO2 T10281117
  • 082256Z AUTO 17009G16KT 10SM BKN090 M03/M12 A3015 RMK AO2 T10281121

TAF N/A



MetMap, La meteo Aeronautica in un colpo d'occhio ! - Copyright ORBIFLY Dicembre 2007 - Disclaimer

ORBIFLY MET'MAP TEAM :

Programmazione e sviluppo : Alexandra Zaïnal
Concezione : Baudouin d'Aumeries
Aiuto per la programmazione : Marc-Olivier Méhu
Supporto tecnico e logistico : Manuel Goepfert
Aiuto per la traduzione : Arnaldo La Scala

Contatto : metmap@orbifly.com




FONTI E CREDITI :

   NOAA